sensor_id;sensor_type;location;lat;lon;timestamp;temperature;humidity
53282;DHT22;39167;52.794;6.892;2023-01-08T00:01:43;9.40;99.90
53282;DHT22;39167;52.794;6.892;2023-01-08T00:04:09;9.40;99.90
53282;DHT22;39167;52.794;6.892;2023-01-08T00:06:35;9.40;99.90
53282;DHT22;39167;52.794;6.892;2023-01-08T00:09:01;9.40;99.90
53282;DHT22;39167;52.794;6.892;2023-01-08T00:11:27;9.40;99.90
53282;DHT22;39167;52.794;6.892;2023-01-08T00:13:53;9.40;99.90
53282;DHT22;39167;52.794;6.892;2023-01-08T00:16:19;9.40;99.90
53282;DHT22;39167;52.794;6.892;2023-01-08T00:18:45;9.40;99.90
53282;DHT22;39167;52.794;6.892;2023-01-08T00:21:12;9.50;99.90
53282;DHT22;39167;52.794;6.892;2023-01-08T00:23:38;9.50;99.90
53282;DHT22;39167;52.794;6.892;2023-01-08T00:26:05;9.40;99.90
53282;DHT22;39167;52.794;6.892;2023-01-08T00:28:33;9.50;99.90
53282;DHT22;39167;52.794;6.892;2023-01-08T00:30:59;9.50;99.90
53282;DHT22;39167;52.794;6.892;2023-01-08T00:33:25;9.50;99.90
53282;DHT22;39167;52.794;6.892;2023-01-08T00:35:51;9.50;99.90
53282;DHT22;39167;52.794;6.892;2023-01-08T00:38:17;9.50;99.90
53282;DHT22;39167;52.794;6.892;2023-01-08T00:40:43;9.50;99.90
53282;DHT22;39167;52.794;6.892;2023-01-08T00:43:08;9.50;99.90
53282;DHT22;39167;52.794;6.892;2023-01-08T00:45:35;9.50;99.90
53282;DHT22;39167;52.794;6.892;2023-01-08T00:48:00;9.50;99.90
53282;DHT22;39167;52.794;6.892;2023-01-08T00:50:26;9.50;99.90
53282;DHT22;39167;52.794;6.892;2023-01-08T00:52:52;9.50;99.90
53282;DHT22;39167;52.794;6.892;2023-01-08T00:55:18;9.50;99.90
53282;DHT22;39167;52.794;6.892;2023-01-08T00:57:43;9.50;99.90
53282;DHT22;39167;52.794;6.892;2023-01-08T01:00:12;9.50;99.90
53282;DHT22;39167;52.794;6.892;2023-01-08T01:02:40;9.50;99.90
53282;DHT22;39167;52.794;6.892;2023-01-08T01:05:06;9.50;99.90
53282;DHT22;39167;52.794;6.892;2023-01-08T01:07:33;9.50;99.90
53282;DHT22;39167;52.794;6.892;2023-01-08T01:09:59;9.50;99.90
53282;DHT22;39167;52.794;6.892;2023-01-08T01:12:25;9.50;99.90
53282;DHT22;39167;52.794;6.892;2023-01-08T01:14:51;9.50;99.90
53282;DHT22;39167;52.794;6.892;2023-01-08T01:17:17;9.50;99.90
53282;DHT22;39167;52.794;6.892;2023-01-08T01:19:43;9.50;99.90
53282;DHT22;39167;52.794;6.892;2023-01-08T01:22:09;9.50;99.90
53282;DHT22;39167;52.794;6.892;2023-01-08T01:24:35;9.50;99.90
53282;DHT22;39167;52.794;6.892;2023-01-08T01:27:01;9.50;99.90
53282;DHT22;39167;52.794;6.892;2023-01-08T01:29:26;9.50;99.90
53282;DHT22;39167;52.794;6.892;2023-01-08T01:31:52;9.50;99.90
53282;DHT22;39167;52.794;6.892;2023-01-08T01:34:18;9.40;99.90
53282;DHT22;39167;52.794;6.892;2023-01-08T01:36:44;9.40;99.90
53282;DHT22;39167;52.794;6.892;2023-01-08T01:39:10;9.40;99.90
53282;DHT22;39167;52.794;6.892;2023-01-08T01:41:38;9.40;99.90
53282;DHT22;39167;52.794;6.892;2023-01-08T01:44:39;9.30;99.90
53282;DHT22;39167;52.794;6.892;2023-01-08T01:50:02;9.20;99.90
53282;DHT22;39167;52.794;6.892;2023-01-08T01:52:32;9.10;99.90
53282;DHT22;39167;52.794;6.892;2023-01-08T01:54:59;9.00;99.90
53282;DHT22;39167;52.794;6.892;2023-01-08T01:57:28;9.00;99.90
53282;DHT22;39167;52.794;6.892;2023-01-08T01:59:55;8.90;99.90
53282;DHT22;39167;52.794;6.892;2023-01-08T02:02:22;8.90;99.90
53282;DHT22;39167;52.794;6.892;2023-01-08T02:04:48;8.80;99.90
53282;DHT22;39167;52.794;6.892;2023-01-08T02:10:09;8.80;99.90
53282;DHT22;39167;52.794;6.892;2023-01-08T02:12:40;8.70;99.90
53282;DHT22;39167;52.794;6.892;2023-01-08T02:15:27;8.70;99.90
53282;DHT22;39167;52.794;6.892;2023-01-08T02:18:40;8.70;99.90
53282;DHT22;39167;52.794;6.892;2023-01-08T02:21:16;8.70;99.90
53282;DHT22;39167;52.794;6.892;2023-01-08T02:24:01;8.60;99.90
53282;DHT22;39167;52.794;6.892;2023-01-08T02:26:32;8.60;99.90
53282;DHT22;39167;52.794;6.892;2023-01-08T02:29:09;8.60;99.90
53282;DHT22;39167;52.794;6.892;2023-01-08T02:31:38;8.70;99.90
53282;DHT22;39167;52.794;6.892;2023-01-08T02:34:05;8.60;99.90
53282;DHT22;39167;52.794;6.892;2023-01-08T02:36:37;8.60;99.90
53282;DHT22;39167;52.794;6.892;2023-01-08T02:39:27;8.60;99.90
53282;DHT22;39167;52.794;6.892;2023-01-08T02:44:34;8.60;99.90
53282;DHT22;39167;52.794;6.892;2023-01-08T02:47:05;8.60;99.90
53282;DHT22;39167;52.794;6.892;2023-01-08T02:49:34;8.60;99.90
53282;DHT22;39167;52.794;6.892;2023-01-08T02:52:05;8.60;99.90
53282;DHT22;39167;52.794;6.892;2023-01-08T02:54:34;8.60;99.90
53282;DHT22;39167;52.794;6.892;2023-01-08T02:57:07;9.00;99.90
53282;DHT22;39167;52.794;6.892;2023-01-08T02:59:34;8.60;99.90
53282;DHT22;39167;52.794;6.892;2023-01-08T03:02:02;8.60;99.90
53282;DHT22;39167;52.794;6.892;2023-01-08T03:04:31;8.60;99.90
53282;DHT22;39167;52.794;6.892;2023-01-08T03:06:58;8.60;99.90
53282;DHT22;39167;52.794;6.892;2023-01-08T03:09:24;8.60;99.90
53282;DHT22;39167;52.794;6.892;2023-01-08T03:14:31;8.60;99.90
53282;DHT22;39167;52.794;6.892;2023-01-08T03:17:17;8.60;99.90
53282;DHT22;39167;52.794;6.892;2023-01-08T03:19:56;8.60;99.90
53282;DHT22;39167;52.794;6.892;2023-01-08T03:22:24;8.60;99.90
53282;DHT22;39167;52.794;6.892;2023-01-08T03:24:52;8.60;99.90
53282;DHT22;39167;52.794;6.892;2023-01-08T03:27:23;8.60;99.90
53282;DHT22;39167;52.794;6.892;2023-01-08T03:29:51;8.80;99.90
53282;DHT22;39167;52.794;6.892;2023-01-08T03:32:19;8.70;99.90
53282;DHT22;39167;52.794;6.892;2023-01-08T03:34:47;8.70;99.90
53282;DHT22;39167;52.794;6.892;2023-01-08T03:37:18;8.70;99.90
53282;DHT22;39167;52.794;6.892;2023-01-08T03:39:51;8.70;99.90
53282;DHT22;39167;52.794;6.892;2023-01-08T03:42:20;8.70;99.90
53282;DHT22;39167;52.794;6.892;2023-01-08T03:44:46;8.70;99.90
53282;DHT22;39167;52.794;6.892;2023-01-08T03:47:14;8.80;99.90
53282;DHT22;39167;52.794;6.892;2023-01-08T03:49:40;8.80;99.90
53282;DHT22;39167;52.794;6.892;2023-01-08T03:52:07;8.80;99.90
53282;DHT22;39167;52.794;6.892;2023-01-08T03:54:35;8.80;99.90
53282;DHT22;39167;52.794;6.892;2023-01-08T03:57:01;8.80;99.90
53282;DHT22;39167;52.794;6.892;2023-01-08T03:59:27;8.80;99.90
53282;DHT22;39167;52.794;6.892;2023-01-08T04:01:53;8.80;99.90
53282;DHT22;39167;52.794;6.892;2023-01-08T04:04:19;8.80;99.90
53282;DHT22;39167;52.794;6.892;2023-01-08T04:06:45;8.80;99.90
53282;DHT22;39167;52.794;6.892;2023-01-08T04:09:10;8.80;99.90
53282;DHT22;39167;52.794;6.892;2023-01-08T04:11:36;8.80;99.90
53282;DHT22;39167;52.794;6.892;2023-01-08T04:14:02;8.80;99.90
53282;DHT22;39167;52.794;6.892;2023-01-08T04:16:28;8.80;99.90
53282;DHT22;39167;52.794;6.892;2023-01-08T04:18:53;8.80;99.90
53282;DHT22;39167;52.794;6.892;2023-01-08T04:21:19;8.80;99.90
53282;DHT22;39167;52.794;6.892;2023-01-08T04:23:45;8.80;99.90
53282;DHT22;39167;52.794;6.892;2023-01-08T04:26:11;8.80;99.90
53282;DHT22;39167;52.794;6.892;2023-01-08T04:28:37;8.80;99.90
53282;DHT22;39167;52.794;6.892;2023-01-08T04:31:06;8.80;99.90
53282;DHT22;39167;52.794;6.892;2023-01-08T04:33:32;8.70;99.90
53282;DHT22;39167;52.794;6.892;2023-01-08T04:35:58;8.70;99.90
53282;DHT22;39167;52.794;6.892;2023-01-08T04:38:24;8.70;99.90
53282;DHT22;39167;52.794;6.892;2023-01-08T04:40:58;8.70;99.90
53282;DHT22;39167;52.794;6.892;2023-01-08T04:43:25;8.70;99.90
53282;DHT22;39167;52.794;6.892;2023-01-08T04:45:51;8.70;99.90
53282;DHT22;39167;52.794;6.892;2023-01-08T04:48:16;8.70;99.90
53282;DHT22;39167;52.794;6.892;2023-01-08T04:50:42;8.70;99.90
53282;DHT22;39167;52.794;6.892;2023-01-08T04:53:08;8.70;99.90
53282;DHT22;39167;52.794;6.892;2023-01-08T04:55:33;8.70;99.90
53282;DHT22;39167;52.794;6.892;2023-01-08T04:57:59;8.70;99.90
53282;DHT22;39167;52.794;6.892;2023-01-08T05:00:25;8.70;99.90
53282;DHT22;39167;52.794;6.892;2023-01-08T05:02:50;8.60;99.90
53282;DHT22;39167;52.794;6.892;2023-01-08T05:05:16;8.70;99.90
53282;DHT22;39167;52.794;6.892;2023-01-08T05:07:42;8.60;99.90
53282;DHT22;39167;52.794;6.892;2023-01-08T05:10:08;8.60;99.90
53282;DHT22;39167;52.794;6.892;2023-01-08T05:12:33;8.60;99.90
53282;DHT22;39167;52.794;6.892;2023-01-08T05:14:59;8.60;99.90
53282;DHT22;39167;52.794;6.892;2023-01-08T05:17:25;8.60;99.90
53282;DHT22;39167;52.794;6.892;2023-01-08T05:19:51;8.60;99.90
53282;DHT22;39167;52.794;6.892;2023-01-08T05:22:16;8.60;99.90
53282;DHT22;39167;52.794;6.892;2023-01-08T05:24:42;8.60;99.90
53282;DHT22;39167;52.794;6.892;2023-01-08T05:27:08;8.60;99.90
53282;DHT22;39167;52.794;6.892;2023-01-08T05:29:33;8.60;99.90
53282;DHT22;39167;52.794;6.892;2023-01-08T05:31:59;8.60;99.90
53282;DHT22;39167;52.794;6.892;2023-01-08T05:34:25;8.50;99.90
53282;DHT22;39167;52.794;6.892;2023-01-08T05:36:50;8.50;99.90
53282;DHT22;39167;52.794;6.892;2023-01-08T05:39:16;8.50;99.90
53282;DHT22;39167;52.794;6.892;2023-01-08T05:41:42;8.50;99.90
53282;DHT22;39167;52.794;6.892;2023-01-08T05:44:09;8.40;99.90
53282;DHT22;39167;52.794;6.892;2023-01-08T05:46:34;8.40;99.90
53282;DHT22;39167;52.794;6.892;2023-01-08T05:49:00;8.40;99.90
53282;DHT22;39167;52.794;6.892;2023-01-08T05:51:26;8.40;99.90
53282;DHT22;39167;52.794;6.892;2023-01-08T05:53:51;8.40;99.90
53282;DHT22;39167;52.794;6.892;2023-01-08T05:56:17;8.30;99.90
53282;DHT22;39167;52.794;6.892;2023-01-08T05:58:43;8.30;99.90
53282;DHT22;39167;52.794;6.892;2023-01-08T06:01:11;8.30;99.90
53282;DHT22;39167;52.794;6.892;2023-01-08T06:03:38;8.20;99.90
53282;DHT22;39167;52.794;6.892;2023-01-08T06:06:05;8.20;99.90
53282;DHT22;39167;52.794;6.892;2023-01-08T06:08:32;8.20;99.90
53282;DHT22;39167;52.794;6.892;2023-01-08T06:10:59;8.20;99.90
53282;DHT22;39167;52.794;6.892;2023-01-08T06:13:25;8.20;99.90
53282;DHT22;39167;52.794;6.892;2023-01-08T06:15:51;8.10;99.90
53282;DHT22;39167;52.794;6.892;2023-01-08T06:18:16;8.10;99.90
53282;DHT22;39167;52.794;6.892;2023-01-08T06:20:42;8.10;99.90
53282;DHT22;39167;52.794;6.892;2023-01-08T06:23:08;8.20;99.90
53282;DHT22;39167;52.794;6.892;2023-01-08T06:25:34;8.10;99.90
53282;DHT22;39167;52.794;6.892;2023-01-08T06:28:00;8.10;99.90
53282;DHT22;39167;52.794;6.892;2023-01-08T06:30:25;8.10;99.90
53282;DHT22;39167;52.794;6.892;2023-01-08T06:32:55;8.10;99.90
53282;DHT22;39167;52.794;6.892;2023-01-08T06:35:21;8.10;99.90
53282;DHT22;39167;52.794;6.892;2023-01-08T06:37:47;8.10;99.90
53282;DHT22;39167;52.794;6.892;2023-01-08T06:40:12;8.00;99.90
53282;DHT22;39167;52.794;6.892;2023-01-08T06:42:38;8.00;99.90
53282;DHT22;39167;52.794;6.892;2023-01-08T06:45:05;8.00;99.90
53282;DHT22;39167;52.794;6.892;2023-01-08T06:47:32;8.00;99.90
53282;DHT22;39167;52.794;6.892;2023-01-08T06:49:58;8.00;99.90
53282;DHT22;39167;52.794;6.892;2023-01-08T06:52:24;8.00;99.90
53282;DHT22;39167;52.794;6.892;2023-01-08T06:54:50;8.00;99.90
53282;DHT22;39167;52.794;6.892;2023-01-08T06:57:15;8.00;99.90
53282;DHT22;39167;52.794;6.892;2023-01-08T06:59:41;8.00;99.90
53282;DHT22;39167;52.794;6.892;2023-01-08T07:02:14;8.00;99.90
53282;DHT22;39167;52.794;6.892;2023-01-08T07:04:40;8.00;99.90
53282;DHT22;39167;52.794;6.892;2023-01-08T07:07:05;8.00;99.90
53282;DHT22;39167;52.794;6.892;2023-01-08T07:09:34;8.00;99.90
53282;DHT22;39167;52.794;6.892;2023-01-08T07:12:00;8.00;99.90
53282;DHT22;39167;52.794;6.892;2023-01-08T07:14:26;8.00;99.90
53282;DHT22;39167;52.794;6.892;2023-01-08T07:16:52;8.00;99.90
53282;DHT22;39167;52.794;6.892;2023-01-08T07:19:17;7.90;99.90
53282;DHT22;39167;52.794;6.892;2023-01-08T07:21:43;8.00;99.90
53282;DHT22;39167;52.794;6.892;2023-01-08T07:24:08;8.00;99.90
53282;DHT22;39167;52.794;6.892;2023-01-08T07:26:34;7.90;99.90
53282;DHT22;39167;52.794;6.892;2023-01-08T07:29:00;7.90;99.90
53282;DHT22;39167;52.794;6.892;2023-01-08T07:31:26;7.90;99.90
53282;DHT22;39167;52.794;6.892;2023-01-08T07:33:52;7.90;99.90
53282;DHT22;39167;52.794;6.892;2023-01-08T07:36:17;7.90;99.90
53282;DHT22;39167;52.794;6.892;2023-01-08T07:38:48;7.90;99.90
53282;DHT22;39167;52.794;6.892;2023-01-08T07:41:14;7.90;99.90
53282;DHT22;39167;52.794;6.892;2023-01-08T07:43:40;7.90;99.90
53282;DHT22;39167;52.794;6.892;2023-01-08T07:46:06;7.90;99.90
53282;DHT22;39167;52.794;6.892;2023-01-08T07:48:32;7.90;99.90
53282;DHT22;39167;52.794;6.892;2023-01-08T07:51:06;7.90;99.90
53282;DHT22;39167;52.794;6.892;2023-01-08T07:53:32;7.90;99.90
53282;DHT22;39167;52.794;6.892;2023-01-08T07:56:00;7.90;99.90
53282;DHT22;39167;52.794;6.892;2023-01-08T07:58:25;7.90;99.90
53282;DHT22;39167;52.794;6.892;2023-01-08T08:00:51;7.90;99.90
53282;DHT22;39167;52.794;6.892;2023-01-08T08:03:17;7.90;99.90
53282;DHT22;39167;52.794;6.892;2023-01-08T08:05:43;7.90;99.90
53282;DHT22;39167;52.794;6.892;2023-01-08T08:08:09;7.90;99.90
53282;DHT22;39167;52.794;6.892;2023-01-08T08:10:36;7.80;99.90
53282;DHT22;39167;52.794;6.892;2023-01-08T08:13:02;7.80;99.90
53282;DHT22;39167;52.794;6.892;2023-01-08T08:15:28;7.80;99.90
53282;DHT22;39167;52.794;6.892;2023-01-08T08:17:53;7.80;99.90
53282;DHT22;39167;52.794;6.892;2023-01-08T08:20:19;7.80;99.90
53282;DHT22;39167;52.794;6.892;2023-01-08T08:22:45;7.70;99.90
53282;DHT22;39167;52.794;6.892;2023-01-08T08:25:11;7.70;99.90
53282;DHT22;39167;52.794;6.892;2023-01-08T08:27:40;7.70;99.90
53282;DHT22;39167;52.794;6.892;2023-01-08T08:30:06;7.70;99.90
53282;DHT22;39167;52.794;6.892;2023-01-08T08:32:32;7.70;99.90
53282;DHT22;39167;52.794;6.892;2023-01-08T08:34:58;7.70;99.90
53282;DHT22;39167;52.794;6.892;2023-01-08T08:37:24;7.60;99.90
53282;DHT22;39167;52.794;6.892;2023-01-08T08:39:49;7.60;99.90
53282;DHT22;39167;52.794;6.892;2023-01-08T08:42:15;7.60;99.90
53282;DHT22;39167;52.794;6.892;2023-01-08T08:44:41;7.60;99.90
53282;DHT22;39167;52.794;6.892;2023-01-08T08:47:07;7.60;99.90
53282;DHT22;39167;52.794;6.892;2023-01-08T08:49:35;7.60;99.90
53282;DHT22;39167;52.794;6.892;2023-01-08T08:52:02;7.60;99.90
53282;DHT22;39167;52.794;6.892;2023-01-08T08:54:28;7.60;99.90
53282;DHT22;39167;52.794;6.892;2023-01-08T08:56:53;7.60;99.90
53282;DHT22;39167;52.794;6.892;2023-01-08T08:59:19;7.60;99.90
53282;DHT22;39167;52.794;6.892;2023-01-08T09:01:45;7.60;99.90
53282;DHT22;39167;52.794;6.892;2023-01-08T09:04:10;7.60;99.90
53282;DHT22;39167;52.794;6.892;2023-01-08T09:06:36;7.60;99.90
53282;DHT22;39167;52.794;6.892;2023-01-08T09:09:02;7.50;99.90
53282;DHT22;39167;52.794;6.892;2023-01-08T09:11:28;7.60;99.90
53282;DHT22;39167;52.794;6.892;2023-01-08T09:13:53;7.70;99.90
53282;DHT22;39167;52.794;6.892;2023-01-08T09:16:19;7.60;99.90
53282;DHT22;39167;52.794;6.892;2023-01-08T09:18:45;7.60;99.90
53282;DHT22;39167;52.794;6.892;2023-01-08T09:21:11;7.60;99.90
53282;DHT22;39167;52.794;6.892;2023-01-08T09:23:37;7.60;99.90
53282;DHT22;39167;52.794;6.892;2023-01-08T09:26:04;7.60;99.90
53282;DHT22;39167;52.794;6.892;2023-01-08T09:28:30;7.60;99.90
53282;DHT22;39167;52.794;6.892;2023-01-08T09:31:00;7.60;99.90
53282;DHT22;39167;52.794;6.892;2023-01-08T09:33:26;7.60;99.90
53282;DHT22;39167;52.794;6.892;2023-01-08T09:35:52;7.60;99.90
53282;DHT22;39167;52.794;6.892;2023-01-08T09:38:17;7.60;99.90
53282;DHT22;39167;52.794;6.892;2023-01-08T09:40:51;7.70;99.90
53282;DHT22;39167;52.794;6.892;2023-01-08T09:43:20;7.80;99.90
53282;DHT22;39167;52.794;6.892;2023-01-08T09:45:54;7.70;99.90
53282;DHT22;39167;52.794;6.892;2023-01-08T09:48:24;7.70;99.90
53282;DHT22;39167;52.794;6.892;2023-01-08T09:50:50;7.80;99.90
53282;DHT22;39167;52.794;6.892;2023-01-08T09:53:17;7.80;99.90
53282;DHT22;39167;52.794;6.892;2023-01-08T09:55:45;7.80;99.90
53282;DHT22;39167;52.794;6.892;2023-01-08T10:00:53;7.80;99.90
53282;DHT22;39167;52.794;6.892;2023-01-08T10:03:20;7.80;99.90
53282;DHT22;39167;52.794;6.892;2023-01-08T10:05:46;7.80;99.90
53282;DHT22;39167;52.794;6.892;2023-01-08T10:08:13;7.80;99.90
53282;DHT22;39167;52.794;6.892;2023-01-08T10:10:40;7.90;99.90
53282;DHT22;39167;52.794;6.892;2023-01-08T10:13:10;7.80;99.90
53282;DHT22;39167;52.794;6.892;2023-01-08T10:15:39;7.90;99.90
53282;DHT22;39167;52.794;6.892;2023-01-08T10:18:12;7.90;99.90
53282;DHT22;39167;52.794;6.892;2023-01-08T10:20:38;7.90;99.90
53282;DHT22;39167;52.794;6.892;2023-01-08T10:23:14;7.90;99.90
53282;DHT22;39167;52.794;6.892;2023-01-08T10:25:58;7.90;99.90
53282;DHT22;39167;52.794;6.892;2023-01-08T10:28:27;7.90;99.90
53282;DHT22;39167;52.794;6.892;2023-01-08T10:30:58;8.00;99.90
53282;DHT22;39167;52.794;6.892;2023-01-08T10:33:28;8.10;99.90
53282;DHT22;39167;52.794;6.892;2023-01-08T10:36:02;8.00;99.90
53282;DHT22;39167;52.794;6.892;2023-01-08T10:38:31;8.00;99.90
53282;DHT22;39167;52.794;6.892;2023-01-08T10:40:59;8.00;99.90
53282;DHT22;39167;52.794;6.892;2023-01-08T10:43:33;8.00;99.90
53282;DHT22;39167;52.794;6.892;2023-01-08T10:46:06;8.10;99.90
53282;DHT22;39167;52.794;6.892;2023-01-08T10:48:53;8.10;99.90
53282;DHT22;39167;52.794;6.892;2023-01-08T10:51:20;8.10;99.90
53282;DHT22;39167;52.794;6.892;2023-01-08T10:53:48;8.10;99.90
53282;DHT22;39167;52.794;6.892;2023-01-08T10:58:43;8.20;99.90
53282;DHT22;39167;52.794;6.892;2023-01-08T11:01:12;8.20;99.90
53282;DHT22;39167;52.794;6.892;2023-01-08T11:03:40;8.20;99.90
53282;DHT22;39167;52.794;6.892;2023-01-08T11:06:30;8.20;99.90
53282;DHT22;39167;52.794;6.892;2023-01-08T11:09:19;8.00;99.90
53282;DHT22;39167;52.794;6.892;2023-01-08T11:11:47;8.30;99.90
53282;DHT22;39167;52.794;6.892;2023-01-08T11:14:33;8.30;99.90
53282;DHT22;39167;52.794;6.892;2023-01-08T11:17:00;8.30;99.90
53282;DHT22;39167;52.794;6.892;2023-01-08T11:19:31;8.30;99.90
53282;DHT22;39167;52.794;6.892;2023-01-08T11:22:14;8.30;99.90
53282;DHT22;39167;52.794;6.892;2023-01-08T11:24:42;8.30;99.90
53282;DHT22;39167;52.794;6.892;2023-01-08T11:27:15;8.30;99.90
53282;DHT22;39167;52.794;6.892;2023-01-08T11:29:56;8.30;99.90
53282;DHT22;39167;52.794;6.892;2023-01-08T11:37:34;8.30;99.90
53282;DHT22;39167;52.794;6.892;2023-01-08T11:40:00;8.40;99.90
53282;DHT22;39167;52.794;6.892;2023-01-08T11:51:00;8.40;99.90
53282;DHT22;39167;52.794;6.892;2023-01-08T11:53:37;8.40;99.90
53282;DHT22;39167;52.794;6.892;2023-01-08T11:56:55;8.40;99.90
53282;DHT22;39167;52.794;6.892;2023-01-08T12:07:48;8.50;99.90
53282;DHT22;39167;52.794;6.892;2023-01-08T12:10:23;8.50;99.90
53282;DHT22;39167;52.794;6.892;2023-01-08T12:13:23;8.50;99.90
53282;DHT22;39167;52.794;6.892;2023-01-08T12:21:51;8.60;99.90
53282;DHT22;39167;52.794;6.892;2023-01-08T12:27:25;8.70;99.90
53282;DHT22;39167;52.794;6.892;2023-01-08T12:34:55;8.80;99.90
53282;DHT22;39167;52.794;6.892;2023-01-08T12:42:41;8.80;99.90
53282;DHT22;39167;52.794;6.892;2023-01-08T12:45:19;8.90;99.90
53282;DHT22;39167;52.794;6.892;2023-01-08T12:47:49;8.90;99.90
53282;DHT22;39167;52.794;6.892;2023-01-08T12:50:47;8.90;99.90
53282;DHT22;39167;52.794;6.892;2023-01-08T12:53:11;8.90;99.90
53282;DHT22;39167;52.794;6.892;2023-01-08T12:59:18;8.90;99.90
53282;DHT22;39167;52.794;6.892;2023-01-08T13:04:47;9.00;99.90
53282;DHT22;39167;52.794;6.892;2023-01-08T13:07:25;8.90;99.90
53282;DHT22;39167;52.794;6.892;2023-01-08T13:09:56;8.90;99.90
53282;DHT22;39167;52.794;6.892;2023-01-08T13:12:35;8.90;99.90
53282;DHT22;39167;52.794;6.892;2023-01-08T13:15:03;9.00;99.90
53282;DHT22;39167;52.794;6.892;2023-01-08T13:17:29;9.00;99.90
53282;DHT22;39167;52.794;6.892;2023-01-08T13:19:59;9.00;99.90
53282;DHT22;39167;52.794;6.892;2023-01-08T13:22:31;9.00;99.90
53282;DHT22;39167;52.794;6.892;2023-01-08T13:25:09;9.00;99.90
53282;DHT22;39167;52.794;6.892;2023-01-08T13:27:47;9.00;99.90
53282;DHT22;39167;52.794;6.892;2023-01-08T13:30:48;9.00;99.90
53282;DHT22;39167;52.794;6.892;2023-01-08T13:39:16;9.00;99.90
53282;DHT22;39167;52.794;6.892;2023-01-08T13:44:38;9.00;99.90
53282;DHT22;39167;52.794;6.892;2023-01-08T13:47:29;9.00;99.90
53282;DHT22;39167;52.794;6.892;2023-01-08T13:49:53;9.00;99.90
53282;DHT22;39167;52.794;6.892;2023-01-08T13:55:11;9.00;99.90
53282;DHT22;39167;52.794;6.892;2023-01-08T13:57:40;9.00;99.90
53282;DHT22;39167;52.794;6.892;2023-01-08T14:00:12;9.00;99.90
53282;DHT22;39167;52.794;6.892;2023-01-08T14:02:45;9.00;99.90
53282;DHT22;39167;52.794;6.892;2023-01-08T14:05:24;9.00;99.90
53282;DHT22;39167;52.794;6.892;2023-01-08T14:07:50;9.00;99.90
53282;DHT22;39167;52.794;6.892;2023-01-08T14:10:17;9.00;99.90
53282;DHT22;39167;52.794;6.892;2023-01-08T14:12:43;8.90;99.90
53282;DHT22;39167;52.794;6.892;2023-01-08T14:15:22;8.90;99.90
53282;DHT22;39167;52.794;6.892;2023-01-08T14:17:50;8.90;99.90
53282;DHT22;39167;52.794;6.892;2023-01-08T14:20:30;8.90;99.90
53282;DHT22;39167;52.794;6.892;2023-01-08T14:22:56;8.90;99.90
53282;DHT22;39167;52.794;6.892;2023-01-08T14:25:22;8.90;99.90
53282;DHT22;39167;52.794;6.892;2023-01-08T14:28:03;8.90;99.90
53282;DHT22;39167;52.794;6.892;2023-01-08T14:30:29;8.90;99.90
53282;DHT22;39167;52.794;6.892;2023-01-08T14:32:56;8.80;99.90
53282;DHT22;39167;52.794;6.892;2023-01-08T14:35:28;8.80;99.90
53282;DHT22;39167;52.794;6.892;2023-01-08T14:37:57;8.80;99.90
53282;DHT22;39167;52.794;6.892;2023-01-08T14:40:31;8.80;99.90
53282;DHT22;39167;52.794;6.892;2023-01-08T14:43:05;8.80;99.90
53282;DHT22;39167;52.794;6.892;2023-01-08T14:45:32;8.80;99.90
53282;DHT22;39167;52.794;6.892;2023-01-08T14:48:23;8.80;99.90
53282;DHT22;39167;52.794;6.892;2023-01-08T14:51:06;8.80;99.90
53282;DHT22;39167;52.794;6.892;2023-01-08T14:53:45;8.80;99.90
53282;DHT22;39167;52.794;6.892;2023-01-08T14:56:13;8.80;99.90
53282;DHT22;39167;52.794;6.892;2023-01-08T14:58:42;8.80;99.90
53282;DHT22;39167;52.794;6.892;2023-01-08T15:01:24;8.80;99.90
53282;DHT22;39167;52.794;6.892;2023-01-08T15:03:51;8.80;99.90
53282;DHT22;39167;52.794;6.892;2023-01-08T15:06:30;8.70;99.90
53282;DHT22;39167;52.794;6.892;2023-01-08T15:08:56;8.70;99.90
53282;DHT22;39167;52.794;6.892;2023-01-08T15:11:32;8.70;99.90
53282;DHT22;39167;52.794;6.892;2023-01-08T15:14:13;8.70;99.90
53282;DHT22;39167;52.794;6.892;2023-01-08T15:16:40;8.60;99.90
53282;DHT22;39167;52.794;6.892;2023-01-08T15:19:15;8.60;99.90
53282;DHT22;39167;52.794;6.892;2023-01-08T15:21:53;8.60;99.90
53282;DHT22;39167;52.794;6.892;2023-01-08T15:24:24;8.50;99.90
53282;DHT22;39167;52.794;6.892;2023-01-08T15:26:52;8.50;99.90
53282;DHT22;39167;52.794;6.892;2023-01-08T15:29:29;8.50;99.90
53282;DHT22;39167;52.794;6.892;2023-01-08T15:32:19;8.40;99.90
53282;DHT22;39167;52.794;6.892;2023-01-08T15:34:45;8.40;99.90
53282;DHT22;39167;52.794;6.892;2023-01-08T15:37:12;8.40;99.90
53282;DHT22;39167;52.794;6.892;2023-01-08T15:39:39;8.40;99.90
53282;DHT22;39167;52.794;6.892;2023-01-08T15:42:18;8.30;99.90
53282;DHT22;39167;52.794;6.892;2023-01-08T15:45:04;8.30;99.90
53282;DHT22;39167;52.794;6.892;2023-01-08T15:47:30;8.20;99.90
53282;DHT22;39167;52.794;6.892;2023-01-08T15:49:56;8.30;99.90
53282;DHT22;39167;52.794;6.892;2023-01-08T15:52:23;8.20;99.90
53282;DHT22;39167;52.794;6.892;2023-01-08T15:54:57;8.20;99.90
53282;DHT22;39167;52.794;6.892;2023-01-08T15:57:23;8.20;99.90
53282;DHT22;39167;52.794;6.892;2023-01-08T15:59:49;8.20;99.90
53282;DHT22;39167;52.794;6.892;2023-01-08T16:02:15;8.10;99.90
53282;DHT22;39167;52.794;6.892;2023-01-08T16:04:42;8.10;99.90
53282;DHT22;39167;52.794;6.892;2023-01-08T16:07:08;8.10;99.90
53282;DHT22;39167;52.794;6.892;2023-01-08T16:09:33;8.00;99.90
53282;DHT22;39167;52.794;6.892;2023-01-08T16:11:59;8.00;99.90
53282;DHT22;39167;52.794;6.892;2023-01-08T16:14:25;8.00;99.90
53282;DHT22;39167;52.794;6.892;2023-01-08T16:16:51;8.00;99.90
53282;DHT22;39167;52.794;6.892;2023-01-08T16:19:16;7.90;99.90
53282;DHT22;39167;52.794;6.892;2023-01-08T16:21:42;7.90;99.90
53282;DHT22;39167;52.794;6.892;2023-01-08T16:24:12;7.90;99.90
53282;DHT22;39167;52.794;6.892;2023-01-08T16:26:39;7.90;99.90
53282;DHT22;39167;52.794;6.892;2023-01-08T16:29:04;7.90;99.90
53282;DHT22;39167;52.794;6.892;2023-01-08T16:31:30;7.80;99.90
53282;DHT22;39167;52.794;6.892;2023-01-08T16:34:05;7.80;99.90
53282;DHT22;39167;52.794;6.892;2023-01-08T16:36:30;7.80;99.90
53282;DHT22;39167;52.794;6.892;2023-01-08T16:38:56;7.80;99.90
53282;DHT22;39167;52.794;6.892;2023-01-08T16:41:22;7.80;99.90
53282;DHT22;39167;52.794;6.892;2023-01-08T16:43:47;7.80;99.90
53282;DHT22;39167;52.794;6.892;2023-01-08T16:46:14;7.70;99.90
53282;DHT22;39167;52.794;6.892;2023-01-08T16:48:43;7.70;99.90
53282;DHT22;39167;52.794;6.892;2023-01-08T16:51:10;7.70;99.90
53282;DHT22;39167;52.794;6.892;2023-01-08T16:53:36;7.70;99.90
53282;DHT22;39167;52.794;6.892;2023-01-08T16:56:02;7.70;99.90
53282;DHT22;39167;52.794;6.892;2023-01-08T16:58:28;7.60;99.90
53282;DHT22;39167;52.794;6.892;2023-01-08T17:00:55;7.60;99.90
53282;DHT22;39167;52.794;6.892;2023-01-08T17:03:21;7.60;99.90
53282;DHT22;39167;52.794;6.892;2023-01-08T17:05:47;7.50;99.90
53282;DHT22;39167;52.794;6.892;2023-01-08T17:08:14;7.50;99.90
53282;DHT22;39167;52.794;6.892;2023-01-08T17:10:41;7.50;99.90
53282;DHT22;39167;52.794;6.892;2023-01-08T17:13:08;7.50;99.90